createdAt,value
2022-09-29T00:00:34.558Z,83.28
2022-09-29T00:01:56.356Z,84.77
2022-09-29T00:02:58.411Z,84.11
2022-09-29T00:04:00.211Z,83.95
2022-09-29T00:05:02.208Z,84.08
2022-09-29T00:06:10.413Z,83.85
2022-09-29T00:07:14.467Z,83.88
2022-09-29T00:08:25.016Z,84.08
2022-09-29T00:09:26.729Z,84.04
2022-09-29T00:10:28.341Z,83.57
2022-09-29T00:11:29.954Z,83.42
2022-09-29T00:12:31.713Z,83.15
2022-09-29T00:13:34.163Z,83.00
2022-09-29T00:14:36.208Z,82.94
2022-09-29T00:15:37.956Z,83.00
2022-09-29T00:16:39.608Z,83.32
2022-09-29T00:17:49.746Z,83.25
2022-09-29T00:19:04.436Z,83.49
2022-09-29T00:20:07.041Z,83.25
2022-09-29T00:21:12.355Z,83.57
2022-09-29T00:22:14.120Z,83.26
2022-09-29T00:23:15.839Z,83.09
2022-09-29T00:24:17.726Z,83.42
2022-09-29T00:25:19.397Z,83.20
2022-09-29T00:26:23.490Z,83.14
2022-09-29T00:27:25.755Z,83.06
2022-09-29T00:28:27.693Z,83.24
2022-09-29T00:29:29.502Z,83.62
2022-09-29T00:30:31.198Z,83.64
2022-09-29T00:31:35.443Z,83.54
2022-09-29T00:32:37.203Z,83.40
2022-09-29T00:33:39.020Z,83.31
2022-09-29T00:34:41.528Z,83.35
2022-09-29T00:35:43.166Z,83.38
2022-09-29T00:36:44.922Z,83.18
2022-09-29T00:37:46.717Z,83.08
2022-09-29T00:38:54.537Z,83.38
2022-09-29T00:39:56.451Z,84.03
2022-09-29T00:40:58.343Z,83.98
2022-09-29T00:41:59.994Z,83.92
2022-09-29T00:43:01.578Z,83.81
2022-09-29T00:44:44.300Z,83.55
2022-09-29T00:45:46.648Z,86.79
2022-09-29T00:47:05.096Z,85.32
2022-09-29T00:48:14.070Z,85.21
2022-09-29T00:49:33.526Z,84.82
2022-09-29T00:50:46.735Z,85.04
2022-09-29T00:51:54.120Z,85.27
2022-09-29T00:53:02.021Z,84.68
2022-09-29T00:54:05.228Z,84.31
2022-09-29T00:55:10.185Z,84.23
2022-09-29T00:56:14.545Z,83.77
2022-09-29T00:57:19.514Z,83.63
2022-09-29T00:58:54.302Z,83.63
2022-09-29T01:00:07.859Z,84.90
2022-09-29T01:01:11.505Z,84.33
2022-09-29T01:02:15.003Z,83.78
2022-09-29T01:03:19.752Z,83.70
2022-09-29T01:04:22.214Z,83.49
2022-09-29T01:05:32.606Z,83.67
2022-09-29T01:06:41.761Z,84.32
2022-09-29T01:07:43.918Z,84.70
2022-09-29T01:08:57.494Z,83.77
2022-09-29T01:09:59.425Z,83.73
2022-09-29T01:11:01.792Z,83.48
2022-09-29T01:12:03.967Z,83.57
2022-09-29T01:13:05.932Z,83.52
2022-09-29T01:14:10.043Z,83.39
2022-09-29T01:15:15.631Z,83.19
2022-09-29T01:16:17.297Z,83.48
2022-09-29T01:17:19.564Z,83.56
2022-09-29T01:18:21.257Z,83.24
2022-09-29T01:19:50.913Z,83.25
2022-09-29T01:21:01.499Z,85.93
2022-09-29T01:22:21.744Z,85.05
2022-09-29T01:23:41.692Z,87.63
2022-09-29T01:25:22.245Z,86.31
2022-09-29T01:27:00.843Z,86.56
2022-09-29T01:28:15.371Z,85.20
2022-09-29T01:29:58.822Z,84.98
2022-09-29T01:32:52.064Z,86.95
2022-09-29T01:34:22.552Z,86.31
2022-09-29T01:35:34.466Z,86.90
2022-09-29T01:36:38.791Z,85.58
2022-09-29T01:37:58.927Z,85.23
2022-09-29T01:39:34.811Z,85.77
2022-09-29T01:40:42.511Z,86.73
2022-09-29T01:41:52.706Z,85.82
2022-09-29T01:43:04.212Z,85.20
2022-09-29T01:44:28.388Z,84.82
2022-09-29T01:45:34.204Z,85.03
2022-09-29T01:46:53.325Z,84.53
2022-09-29T01:47:59.906Z,84.67
2022-09-29T01:49:03.666Z,84.36
2022-09-29T01:50:10.942Z,83.98
2022-09-29T01:51:18.537Z,83.84
2022-09-29T01:52:24.607Z,83.86
2022-09-29T01:53:36.407Z,84.04
2022-09-29T01:55:07.108Z,83.83
2022-09-29T01:56:16.247Z,85.00
2022-09-29T01:57:26.142Z,84.35
2022-09-29T01:58:37.879Z,84.09
2022-09-29T01:59:52.025Z,84.09
2022-09-29T02:00:59.548Z,84.00
2022-09-29T02:02:08.191Z,84.32
2022-09-29T02:03:15.647Z,83.89
2022-09-29T02:04:22.725Z,83.57
2022-09-29T02:05:30.206Z,84.01
2022-09-29T02:06:37.726Z,83.67
2022-09-29T02:07:43.465Z,83.49
2022-09-29T02:08:52.223Z,83.49
2022-09-29T02:10:00.372Z,83.78
2022-09-29T02:11:05.491Z,83.64
2022-09-29T02:12:12.316Z,83.64
2022-09-29T02:13:15.470Z,83.78
2022-09-29T02:14:23.329Z,83.78
2022-09-29T02:15:31.797Z,83.87
2022-09-29T02:16:43.119Z,84.01
2022-09-29T02:17:47.887Z,83.90
2022-09-29T02:19:08.475Z,83.83
2022-09-29T02:20:11.980Z,84.33
2022-09-29T02:21:13.623Z,84.16
2022-09-29T02:22:15.347Z,84.02
2022-09-29T02:23:17.778Z,83.99
2022-09-29T02:24:21.116Z,83.88
2022-09-29T02:25:24.074Z,83.59
2022-09-29T02:26:30.838Z,83.57
2022-09-29T02:27:33.243Z,83.45
2022-09-29T02:28:35.912Z,83.22
2022-09-29T02:29:38.365Z,83.22
2022-09-29T02:30:40.144Z,83.59
2022-09-29T02:31:42.008Z,83.52
2022-09-29T02:32:45.546Z,83.40
2022-09-29T02:33:47.229Z,83.53
2022-09-29T02:34:51.515Z,83.62
2022-09-29T02:36:11.128Z,83.71
2022-09-29T02:37:30.719Z,83.80
2022-09-29T02:38:44.331Z,84.04
2022-09-29T02:39:48.747Z,84.39
2022-09-29T02:41:04.166Z,83.70
2022-09-29T02:42:17.411Z,83.19
2022-09-29T02:43:19.262Z,83.43
2022-09-29T02:44:23.579Z,83.69
2022-09-29T02:45:41.515Z,83.31
2022-09-29T02:46:50.483Z,83.36
2022-09-29T02:48:00.640Z,83.69
2022-09-29T02:49:33.264Z,83.80
2022-09-29T02:50:39.594Z,83.95
2022-09-29T02:51:47.432Z,83.77
2022-09-29T02:53:09.627Z,83.78
2022-09-29T02:54:40.768Z,85.14
2022-09-29T02:56:02.154Z,85.68
2022-09-29T02:57:42.054Z,85.34
2022-09-29T02:58:51.315Z,84.58
2022-09-29T03:00:10.620Z,84.01
2022-09-29T03:01:15.788Z,85.14
2022-09-29T03:02:26.378Z,83.98
2022-09-29T03:03:28.504Z,84.00
2022-09-29T03:04:30.389Z,83.76
2022-09-29T03:05:32.478Z,84.18
2022-09-29T03:06:34.053Z,83.46
2022-09-29T03:07:37.617Z,83.11
2022-09-29T03:08:39.325Z,83.26
2022-09-29T03:09:41.166Z,83.12
2022-09-29T03:10:42.827Z,83.44
2022-09-29T03:11:44.620Z,83.78
2022-09-29T03:12:46.714Z,83.63
2022-09-29T03:13:48.319Z,83.17
2022-09-29T03:14:50.028Z,83.29
2022-09-29T03:15:51.870Z,83.57
2022-09-29T03:16:53.443Z,83.77
2022-09-29T03:17:59.457Z,83.26
2022-09-29T03:19:01.300Z,83.45
2022-09-29T03:20:04.531Z,83.06
2022-09-29T03:21:06.234Z,82.97
2022-09-29T03:22:07.976Z,83.22
2022-09-29T03:23:09.593Z,82.98
2022-09-29T03:24:11.226Z,83.41
2022-09-29T03:25:14.056Z,83.06
2022-09-29T03:26:16.232Z,83.01
2022-09-29T03:27:18.108Z,82.95
2022-09-29T03:28:19.691Z,83.38
2022-09-29T03:29:21.354Z,83.13
2022-09-29T03:30:23.390Z,83.02
2022-09-29T03:31:25.236Z,83.18
2022-09-29T03:32:26.849Z,83.02
2022-09-29T03:33:28.399Z,83.11
2022-09-29T03:34:30.133Z,83.21
2022-09-29T03:35:31.854Z,83.28
2022-09-29T03:36:33.547Z,83.32
2022-09-29T03:37:35.530Z,83.31
2022-09-29T03:38:38.066Z,83.15
2022-09-29T03:39:39.811Z,82.89
2022-09-29T03:40:41.696Z,82.84
2022-09-29T03:41:43.480Z,83.03
2022-09-29T03:42:46.730Z,82.76
2022-09-29T03:43:48.430Z,82.78
2022-09-29T03:44:50.205Z,83.05
2022-09-29T03:45:54.208Z,83.23
2022-09-29T03:46:55.829Z,83.15
2022-09-29T03:47:57.491Z,83.06
2022-09-29T03:48:59.182Z,83.57
2022-09-29T03:50:00.875Z,83.14
2022-09-29T03:51:03.278Z,83.48
2022-09-29T03:52:05.094Z,83.39
2022-09-29T03:53:07.101Z,83.11
2022-09-29T03:54:09.908Z,82.74
2022-09-29T03:55:11.706Z,83.45
2022-09-29T03:56:13.571Z,83.60
2022-09-29T03:57:15.442Z,82.83
2022-09-29T03:58:17.924Z,82.65
2022-09-29T03:59:19.899Z,82.92
2022-09-29T04:00:21.875Z,83.13
2022-09-29T04:01:23.738Z,82.73
2022-09-29T04:02:25.789Z,82.76
2022-09-29T04:03:28.243Z,83.59
2022-09-29T04:04:29.850Z,83.88
2022-09-29T04:05:31.994Z,83.25
2022-09-29T04:06:35.551Z,82.90
2022-09-29T04:07:37.343Z,82.90
2022-09-29T04:08:38.957Z,82.79
2022-09-29T04:09:40.687Z,82.89
2022-09-29T04:10:45.936Z,83.11
2022-09-29T04:11:47.641Z,82.76
2022-09-29T04:12:49.216Z,82.81
2022-09-29T04:13:51.002Z,82.61
2022-09-29T04:14:52.701Z,82.63
2022-09-29T04:15:59.546Z,82.55
2022-09-29T04:17:01.294Z,82.64
2022-09-29T04:18:03.674Z,82.61
2022-09-29T04:19:05.380Z,83.15
2022-09-29T04:20:07.558Z,82.87
2022-09-29T04:21:09.408Z,82.94
2022-09-29T04:22:11.451Z,82.84
2022-09-29T04:23:13.243Z,82.83
2022-09-29T04:24:14.998Z,82.85
2022-09-29T04:25:17.193Z,82.89
2022-09-29T04:26:20.085Z,83.06
2022-09-29T04:27:22.386Z,83.21
2022-09-29T04:28:24.858Z,82.66
2022-09-29T04:29:26.513Z,82.80
2022-09-29T04:30:28.130Z,82.98
2022-09-29T04:31:29.849Z,82.70
2022-09-29T04:32:31.751Z,82.86
2022-09-29T04:33:33.980Z,82.68
2022-09-29T04:34:35.706Z,82.84
2022-09-29T04:35:37.350Z,82.64
2022-09-29T04:36:39.157Z,82.66
2022-09-29T04:37:40.997Z,82.92
2022-09-29T04:38:43.321Z,82.96
2022-09-29T04:39:44.909Z,83.20
2022-09-29T04:40:47.538Z,82.99
2022-09-29T04:41:49.252Z,83.05
2022-09-29T04:42:51.366Z,82.88
2022-09-29T04:43:53.048Z,82.85
2022-09-29T04:44:54.623Z,82.67
2022-09-29T04:46:05.263Z,82.28
2022-09-29T04:47:07.614Z,82.48
2022-09-29T04:48:09.383Z,82.54
2022-09-29T04:49:11.134Z,82.84
2022-09-29T04:50:12.795Z,82.80
2022-09-29T04:51:14.434Z,82.57
2022-09-29T04:52:16.110Z,82.37
2022-09-29T04:53:18.070Z,82.35
2022-09-29T04:54:19.855Z,82.71
2022-09-29T04:55:22.418Z,83.38
2022-09-29T04:56:24.809Z,82.85
2022-09-29T04:57:26.575Z,83.06
2022-09-29T04:58:28.367Z,83.11
2022-09-29T04:59:30.165Z,82.40
2022-09-29T05:00:32.200Z,82.54
2022-09-29T05:01:33.979Z,82.61
2022-09-29T05:02:36.377Z,82.42
2022-09-29T05:03:39.054Z,82.23
2022-09-29T05:04:40.640Z,82.40
2022-09-29T05:05:42.520Z,82.55
2022-09-29T05:06:44.929Z,83.01
2022-09-29T05:07:47.519Z,82.79
2022-09-29T05:08:49.378Z,82.47
2022-09-29T05:09:51.316Z,82.27
2022-09-29T05:10:53.006Z,82.35
2022-09-29T05:11:54.720Z,82.51
2022-09-29T05:12:56.605Z,82.40
2022-09-29T05:13:58.492Z,82.18
2022-09-29T05:15:00.814Z,82.49
2022-09-29T05:16:04.167Z,82.69
2022-09-29T05:17:06.106Z,82.90
2022-09-29T05:18:08.522Z,82.63
2022-09-29T05:19:10.428Z,82.40
2022-09-29T05:20:12.489Z,82.37
2022-09-29T05:21:29.803Z,82.35
2022-09-29T05:22:31.463Z,82.99
2022-09-29T05:23:33.402Z,82.72
2022-09-29T05:24:35.174Z,82.06
2022-09-29T05:25:37.714Z,82.29
2022-09-29T05:26:39.493Z,82.55
2022-09-29T05:27:41.258Z,82.09
2022-09-29T05:28:45.789Z,82.05
2022-09-29T05:29:48.207Z,81.90
2022-09-29T05:30:49.858Z,81.96
2022-09-29T05:31:51.963Z,81.89
2022-09-29T05:32:58.176Z,81.73
2022-09-29T05:34:00.738Z,82.86
2022-09-29T05:35:08.997Z,82.95
2022-09-29T05:36:11.984Z,82.48
2022-09-29T05:37:13.666Z,82.22
2022-09-29T05:38:16.020Z,82.28
2022-09-29T05:39:20.226Z,81.98
2022-09-29T05:40:25.152Z,82.10
2022-09-29T05:41:27.196Z,81.80
2022-09-29T05:42:28.787Z,82.16
2022-09-29T05:43:30.465Z,82.14
2022-09-29T05:44:35.862Z,82.14
2022-09-29T05:45:38.077Z,82.08
2022-09-29T05:46:40.564Z,82.01
2022-09-29T05:47:43.393Z,81.99
2022-09-29T05:48:46.196Z,82.08
2022-09-29T05:49:48.129Z,82.36
2022-09-29T05:50:50.247Z,81.97
2022-09-29T05:51:52.220Z,81.81
2022-09-29T05:52:53.937Z,81.74
2022-09-29T05:53:55.677Z,81.79
2022-09-29T05:54:57.399Z,81.91
2022-09-29T05:56:03.082Z,81.81
2022-09-29T05:57:04.799Z,81.72
2022-09-29T05:58:06.703Z,81.76
2022-09-29T05:59:09.553Z,81.78
2022-09-29T06:00:12.400Z,81.73
2022-09-29T06:01:20.802Z,81.97
2022-09-29T06:02:22.599Z,82.12
2022-09-29T06:03:24.496Z,81.72
2022-09-29T06:04:26.330Z,81.41
2022-09-29T06:05:28.450Z,81.36
2022-09-29T06:06:30.344Z,81.17
2022-09-29T06:07:32.461Z,81.25
2022-09-29T06:08:34.528Z,81.25
2022-09-29T06:09:36.373Z,81.21
2022-09-29T06:10:38.146Z,81.72
2022-09-29T06:11:40.006Z,81.41
2022-09-29T06:12:41.813Z,81.48
2022-09-29T06:13:45.664Z,80.93
2022-09-29T06:14:47.281Z,80.69
2022-09-29T06:15:48.930Z,80.90
2022-09-29T06:16:50.847Z,80.90
2022-09-29T06:18:00.379Z,80.90
2022-09-29T06:19:04.150Z,80.38
2022-09-29T06:20:06.672Z,80.19
2022-09-29T06:21:11.873Z,80.49
2022-09-29T06:22:13.563Z,80.37
2022-09-29T06:23:15.368Z,80.75
2022-09-29T06:24:16.980Z,80.94
2022-09-29T06:25:18.518Z,80.42
2022-09-29T06:26:23.965Z,80.67
2022-09-29T06:27:26.547Z,80.87
2022-09-29T06:28:28.709Z,80.57
2022-09-29T06:29:30.554Z,80.43
2022-09-29T06:30:32.200Z,80.44
2022-09-29T06:31:34.183Z,80.78
2022-09-29T06:32:37.003Z,80.64
2022-09-29T06:33:38.754Z,80.72
2022-09-29T06:35:00.525Z,80.84
2022-09-29T06:36:30.654Z,81.33
2022-09-29T06:37:35.268Z,81.91
2022-09-29T06:38:40.191Z,81.20
2022-09-29T06:39:43.067Z,81.25
2022-09-29T06:40:44.910Z,80.68
2022-09-29T06:41:55.910Z,80.03
2022-09-29T06:42:58.787Z,80.81
2022-09-29T06:44:01.647Z,80.03
2022-09-29T06:45:04.204Z,80.04
2022-09-29T06:46:06.705Z,79.58
2022-09-29T06:47:09.289Z,80.00
2022-09-29T06:48:11.396Z,79.43
2022-09-29T06:49:14.859Z,79.49
2022-09-29T06:50:19.637Z,79.61
2022-09-29T06:51:29.110Z,79.73
2022-09-29T06:52:37.172Z,80.00
2022-09-29T06:53:39.412Z,79.60
2022-09-29T06:54:41.205Z,79.39
2022-09-29T06:55:43.001Z,79.40
2022-09-29T06:56:51.185Z,78.90
2022-09-29T06:57:53.866Z,79.16
2022-09-29T06:58:55.607Z,79.08
2022-09-29T06:59:57.345Z,79.39
2022-09-29T07:01:02.949Z,79.13
2022-09-29T07:02:04.732Z,79.82
2022-09-29T07:03:06.559Z,79.59
2022-09-29T07:04:08.858Z,80.08
2022-09-29T07:05:10.971Z,79.62
2022-09-29T07:06:19.597Z,80.06
2022-09-29T07:07:21.711Z,79.15
2022-09-29T07:08:23.572Z,79.14
2022-09-29T07:09:25.228Z,79.13
2022-09-29T07:10:27.103Z,79.37
2022-09-29T07:11:28.843Z,78.91
2022-09-29T07:12:30.639Z,79.38
2022-09-29T07:13:33.028Z,79.14
2022-09-29T07:14:34.862Z,79.04
2022-09-29T07:15:38.952Z,78.35
2022-09-29T07:16:41.243Z,78.39
2022-09-29T07:17:43.020Z,78.36
2022-09-29T07:18:46.019Z,78.67
2022-09-29T07:19:47.736Z,78.69
2022-09-29T07:20:49.585Z,78.56
2022-09-29T07:21:51.681Z,78.91
2022-09-29T07:22:53.898Z,78.94
2022-09-29T07:23:59.964Z,78.74
2022-09-29T07:25:03.939Z,79.49
2022-09-29T07:26:07.001Z,79.18
2022-09-29T07:27:09.183Z,79.50
2022-09-29T07:28:10.966Z,79.76
2022-09-29T07:29:15.534Z,79.51
2022-09-29T07:30:18.261Z,78.98
2022-09-29T07:31:21.739Z,79.09
2022-09-29T07:32:28.139Z,79.33
2022-09-29T07:33:38.280Z,80.33
2022-09-29T07:34:41.088Z,80.22
2022-09-29T07:35:43.003Z,79.22
2022-09-29T07:36:44.660Z,78.58
2022-09-29T07:37:55.949Z,78.63
2022-09-29T07:38:57.681Z,78.51
2022-09-29T07:39:59.857Z,78.17
2022-09-29T07:41:03.548Z,78.41
2022-09-29T07:42:09.188Z,78.71
2022-09-29T07:43:11.444Z,77.59
2022-09-29T07:44:13.651Z,77.77
2022-09-29T07:45:18.322Z,77.74
2022-09-29T07:46:20.161Z,78.44
2022-09-29T07:47:22.611Z,77.96
2022-09-29T07:48:29.114Z,76.07
2022-09-29T07:49:32.381Z,76.94
2022-09-29T07:50:35.134Z,77.79
2022-09-29T07:51:37.100Z,78.67
2022-09-29T07:52:39.292Z,77.99
2022-09-29T07:53:41.794Z,78.40
2022-09-29T07:54:43.370Z,77.93
2022-09-29T07:55:45.138Z,77.75
2022-09-29T07:56:46.779Z,78.23
2022-09-29T07:57:48.849Z,77.90
2022-09-29T07:58:50.787Z,77.51
2022-09-29T07:59:54.031Z,77.36
2022-09-29T08:00:56.578Z,77.76
2022-09-29T08:01:58.508Z,76.71
2022-09-29T08:03:06.171Z,77.43
2022-09-29T08:04:08.043Z,77.24
2022-09-29T08:05:10.068Z,77.23
2022-09-29T08:06:12.062Z,76.65
2022-09-29T08:07:13.926Z,77.22
2022-09-29T08:08:16.040Z,76.69
2022-09-29T08:09:17.674Z,76.52
2022-09-29T08:10:19.976Z,76.21
2022-09-29T08:11:30.109Z,77.48
2022-09-29T08:12:42.347Z,77.16
2022-09-29T08:13:47.537Z,76.54
2022-09-29T08:14:49.222Z,76.50
2022-09-29T08:15:57.421Z,76.43
2022-09-29T08:16:59.438Z,76.66
2022-09-29T08:18:01.114Z,76.30
2022-09-29T08:19:04.199Z,76.21
2022-09-29T08:20:06.170Z,75.34
2022-09-29T08:21:10.050Z,74.92
2022-09-29T08:22:11.640Z,75.55
2022-09-29T08:23:13.296Z,74.64
2022-09-29T08:24:17.220Z,74.82
2022-09-29T08:25:18.914Z,74.42
2022-09-29T08:26:35.246Z,75.28
2022-09-29T08:27:51.438Z,74.49
2022-09-29T08:29:04.848Z,76.87
2022-09-29T08:30:10.608Z,75.55
2022-09-29T08:31:19.094Z,76.56
2022-09-29T08:32:20.884Z,76.55
2022-09-29T08:33:22.771Z,74.65
2022-09-29T08:34:24.687Z,74.37
2022-09-29T08:35:26.437Z,74.71
2022-09-29T08:36:28.912Z,74.99
2022-09-29T08:37:34.866Z,73.96
2022-09-29T08:38:41.965Z,73.86
2022-09-29T08:39:43.793Z,74.09
2022-09-29T08:40:45.682Z,74.78
2022-09-29T08:41:59.935Z,74.51
2022-09-29T08:43:34.801Z,75.33
2022-09-29T08:44:40.565Z,74.66
2022-09-29T08:45:58.342Z,74.14
2022-09-29T08:47:14.756Z,74.90
2022-09-29T08:48:23.691Z,75.15
2022-09-29T08:49:47.560Z,75.24
2022-09-29T08:50:56.695Z,73.44
2022-09-29T08:52:15.472Z,73.21
2022-09-29T08:53:28.416Z,73.49
2022-09-29T08:54:47.519Z,74.21
2022-09-29T08:55:55.388Z,74.59
2022-09-29T08:56:58.597Z,74.55
2022-09-29T08:58:01.499Z,73.69
2022-09-29T08:59:03.905Z,73.71
2022-09-29T09:00:10.472Z,74.20
2022-09-29T09:01:27.548Z,73.72
2022-09-29T09:03:12.162Z,75.72
2022-09-29T09:04:38.921Z,76.10
2022-09-29T09:06:09.287Z,76.84
2022-09-29T09:07:29.448Z,75.80
2022-09-29T09:08:54.402Z,76.30
2022-09-29T09:10:05.947Z,76.01
2022-09-29T09:11:45.017Z,72.93
2022-09-29T09:13:12.146Z,76.57
2022-09-29T09:14:43.896Z,74.94
2022-09-29T09:15:53.588Z,77.99
2022-09-29T09:17:12.580Z,74.46
2022-09-29T09:18:33.067Z,74.27
2022-09-29T09:20:11.708Z,73.39
2022-09-29T09:21:30.106Z,71.80
2022-09-29T09:23:10.890Z,73.29
2022-09-29T09:24:24.053Z,78.11
2022-09-29T09:25:32.653Z,76.80
2022-09-29T09:26:43.695Z,73.42
2022-09-29T09:27:53.249Z,74.28
2022-09-29T09:29:01.052Z,73.93
2022-09-29T09:30:17.838Z,73.39
2022-09-29T09:31:39.963Z,74.10
2022-09-29T09:32:49.425Z,74.39
2022-09-29T09:34:17.420Z,74.13
2022-09-29T09:35:55.494Z,72.18
2022-09-29T09:37:07.616Z,71.51
2022-09-29T09:38:22.845Z,71.30
2022-09-29T09:39:46.025Z,73.27
2022-09-29T09:40:52.562Z,75.39
2022-09-29T09:41:55.852Z,73.70
2022-09-29T09:43:06.074Z,72.73
2022-09-29T09:44:26.345Z,73.96
2022-09-29T09:45:44.139Z,71.99
2022-09-29T09:46:50.192Z,74.31
2022-09-29T09:48:30.819Z,72.19
2022-09-29T09:49:42.786Z,73.81
2022-09-29T09:50:46.141Z,74.25
2022-09-29T09:52:19.995Z,72.90
2022-09-29T09:53:25.957Z,75.68
2022-09-29T09:54:34.266Z,73.49
2022-09-29T09:55:36.484Z,71.95
2022-09-29T09:56:38.104Z,71.25
2022-09-29T09:57:59.763Z,71.11
2022-09-29T09:59:34.696Z,71.48
2022-09-29T10:00:44.268Z,73.54
2022-09-29T10:01:46.114Z,72.41
2022-09-29T10:02:50.605Z,71.87
2022-09-29T10:03:52.629Z,69.90
2022-09-29T10:04:55.801Z,69.67
2022-09-29T10:05:58.281Z,69.25
2022-09-29T10:07:00.263Z,69.00
2022-09-29T10:08:03.487Z,68.71
2022-09-29T10:09:05.680Z,70.50
2022-09-29T10:10:19.449Z,69.94
2022-09-29T10:11:23.378Z,71.77
2022-09-29T10:12:26.031Z,71.15
2022-09-29T10:13:30.617Z,70.26
2022-09-29T10:14:33.640Z,69.53
2022-09-29T10:15:51.364Z,68.67
2022-09-29T10:17:06.457Z,71.50
2022-09-29T10:18:17.664Z,72.15
2022-09-29T10:19:24.160Z,69.90
2022-09-29T10:20:36.498Z,70.72
2022-09-29T10:21:40.548Z,69.47
2022-09-29T10:22:42.274Z,68.91
2022-09-29T10:23:51.242Z,68.30
2022-09-29T10:25:14.723Z,68.65
2022-09-29T10:26:25.195Z,71.66
2022-09-29T10:27:27.475Z,69.64
2022-09-29T10:28:41.621Z,68.56
2022-09-29T10:29:50.207Z,69.21
2022-09-29T10:30:54.007Z,68.87
2022-09-29T10:32:00.425Z,68.23
2022-09-29T10:33:07.934Z,67.31
2022-09-29T10:34:12.958Z,67.31
2022-09-29T10:35:28.071Z,67.40
2022-09-29T10:36:49.718Z,67.05
2022-09-29T10:38:23.321Z,69.06
2022-09-29T10:39:33.868Z,67.08
2022-09-29T10:40:36.360Z,66.93
2022-09-29T10:41:53.328Z,66.85
2022-09-29T10:42:56.824Z,67.91
2022-09-29T10:44:20.258Z,68.99
2022-09-29T10:45:25.947Z,66.26
2022-09-29T10:46:57.860Z,67.47
2022-09-29T10:48:03.580Z,68.05
2022-09-29T10:49:16.810Z,68.34
2022-09-29T10:50:22.285Z,67.16
2022-09-29T10:51:24.643Z,66.59
2022-09-29T10:52:28.188Z,66.09
2022-09-29T10:53:34.620Z,67.01
2022-09-29T10:54:52.445Z,67.36
2022-09-29T10:55:56.474Z,67.44
2022-09-29T10:56:59.083Z,67.29
2022-09-29T10:58:31.496Z,68.03
2022-09-29T10:59:47.056Z,67.09
2022-09-29T11:00:48.922Z,67.29
2022-09-29T11:01:58.508Z,68.64
2022-09-29T11:03:06.932Z,66.80
2022-09-29T11:04:39.292Z,66.40
2022-09-29T11:05:53.381Z,67.03
2022-09-29T11:06:55.366Z,67.61
2022-09-29T11:07:57.214Z,67.30
2022-09-29T11:09:01.979Z,66.00
2022-09-29T11:10:04.265Z,65.33
2022-09-29T11:11:24.794Z,68.22
2022-09-29T11:12:38.151Z,69.38
2022-09-29T11:13:41.608Z,66.12
2022-09-29T11:14:43.319Z,66.11
2022-09-29T11:15:45.094Z,66.61
2022-09-29T11:16:54.779Z,65.48
2022-09-29T11:17:57.085Z,67.40
2022-09-29T11:19:04.201Z,67.15
2022-09-29T11:20:14.293Z,67.35
2022-09-29T11:21:43.746Z,66.19
2022-09-29T11:22:50.111Z,68.10
2022-09-29T11:24:13.751Z,69.13
2022-09-29T11:25:21.912Z,64.83
2022-09-29T11:26:57.710Z,63.73
2022-09-29T11:28:15.603Z,68.16
2022-09-29T11:29:29.849Z,64.14
2022-09-29T11:31:08.753Z,66.30
2022-09-29T11:32:17.471Z,63.09
2022-09-29T11:33:28.020Z,61.13
2022-09-29T11:35:23.714Z,62.50
2022-09-29T11:36:33.620Z,64.45
2022-09-29T11:37:57.353Z,64.64
2022-09-29T11:39:23.229Z,65.45
2022-09-29T11:41:02.943Z,63.70
2022-09-29T11:42:32.289Z,66.43
2022-09-29T11:44:27.828Z,62.00
2022-09-29T11:45:37.297Z,70.29
2022-09-29T11:46:54.463Z,65.72
2022-09-29T11:48:27.196Z,64.90
2022-09-29T11:50:12.710Z,62.27
2022-09-29T11:51:20.157Z,67.54
2022-09-29T11:52:42.711Z,61.40
2022-09-29T11:54:09.250Z,60.21
2022-09-29T11:55:11.269Z,61.14
2022-09-29T11:56:18.809Z,60.11
2022-09-29T11:57:50.531Z,59.11
2022-09-29T11:59:15.236Z,60.73
2022-09-29T12:00:27.491Z,62.14
2022-09-29T12:01:34.887Z,60.08
2022-09-29T12:03:07.422Z,62.53
2022-09-29T12:04:37.619Z,60.90
2022-09-29T12:06:20.587Z,61.86
2022-09-29T12:07:30.973Z,63.44
2022-09-29T12:08:46.578Z,60.46
2022-09-29T12:10:25.546Z,59.60
2022-09-29T12:11:54.688Z,64.52
2022-09-29T12:13:29.211Z,61.64
2022-09-29T12:15:02.121Z,62.38
2022-09-29T12:16:10.795Z,64.96
2022-09-29T12:17:18.231Z,62.55
2022-09-29T12:18:37.490Z,60.95
2022-09-29T12:19:42.687Z,62.69
2022-09-29T12:20:48.092Z,60.64
2022-09-29T12:21:53.154Z,60.92
2022-09-29T12:23:00.628Z,59.38
2022-09-29T12:24:06.115Z,58.28
2022-09-29T12:25:15.411Z,59.56
2022-09-29T12:26:21.078Z,61.10
2022-09-29T12:27:31.402Z,61.66
2022-09-29T12:28:50.550Z,59.76
2022-09-29T12:29:55.124Z,59.70
2022-09-29T12:31:03.775Z,59.87
2022-09-29T12:32:21.081Z,62.62
2022-09-29T12:33:39.958Z,64.55
2022-09-29T12:34:53.521Z,62.94
2022-09-29T12:36:31.334Z,66.03
2022-09-29T12:37:44.074Z,71.37
2022-09-29T12:38:46.439Z,68.23
2022-09-29T12:40:05.303Z,64.66
2022-09-29T12:41:26.560Z,66.86
2022-09-29T12:42:50.367Z,67.06
2022-09-29T12:44:12.215Z,66.87
2022-09-29T12:45:52.075Z,69.04
2022-09-29T12:47:12.819Z,69.50
2022-09-29T12:48:17.287Z,69.58
2022-09-29T12:49:49.356Z,65.98
2022-09-29T12:51:09.761Z,68.99
2022-09-29T12:52:24.354Z,70.96
2022-09-29T12:53:47.270Z,65.39
2022-09-29T12:54:54.900Z,69.09
2022-09-29T12:56:09.844Z,61.74
2022-09-29T12:57:15.326Z,64.50
2022-09-29T12:58:52.507Z,56.02
2022-09-29T13:00:03.620Z,66.19
2022-09-29T13:01:22.326Z,63.12
2022-09-29T13:02:46.421Z,61.61
2022-09-29T13:04:26.885Z,60.24
2022-09-29T13:05:28.643Z,63.02
2022-09-29T13:06:45.110Z,61.02
2022-09-29T13:08:14.690Z,56.58
2022-09-29T13:09:54.948Z,58.09
2022-09-29T13:11:22.741Z,59.53
2022-09-29T13:13:12.699Z,65.11
2022-09-29T13:14:32.456Z,69.03
2022-09-29T13:16:05.269Z,63.92
2022-09-29T13:17:25.375Z,62.73
2022-09-29T13:18:30.061Z,62.28
2022-09-29T13:19:58.598Z,58.51
2022-09-29T13:21:12.620Z,60.51
2022-09-29T13:22:40.466Z,59.62
2022-09-29T13:23:42.439Z,59.43
2022-09-29T13:25:12.856Z,53.87
2022-09-29T13:26:34.860Z,50.67
2022-09-29T13:27:41.850Z,60.33
2022-09-29T13:28:51.199Z,49.09
2022-09-29T13:30:05.921Z,56.31
2022-09-29T13:31:14.513Z,54.46
2022-09-29T13:32:16.710Z,50.53
2022-09-29T13:33:24.338Z,49.91
2022-09-29T13:34:31.409Z,50.55
2022-09-29T13:35:39.229Z,47.01
2022-09-29T13:36:44.555Z,48.97
2022-09-29T13:37:56.683Z,49.28
2022-09-29T13:38:59.523Z,49.78
2022-09-29T13:40:11.243Z,46.89
2022-09-29T13:41:37.374Z,48.19
2022-09-29T13:42:43.365Z,49.35
2022-09-29T13:43:51.057Z,48.06
2022-09-29T13:45:15.019Z,49.39
2022-09-29T13:46:29.307Z,53.75
2022-09-29T13:47:33.519Z,50.56
2022-09-29T13:48:36.277Z,51.18
2022-09-29T13:49:37.949Z,53.07
2022-09-29T13:50:50.924Z,51.98
2022-09-29T13:52:11.697Z,53.41
2022-09-29T13:53:19.052Z,53.80
2022-09-29T13:54:36.136Z,56.71
2022-09-29T13:55:53.258Z,55.17
2022-09-29T13:57:25.350Z,54.38
2022-09-29T13:58:42.874Z,54.94
2022-09-29T13:59:47.091Z,53.69
2022-09-29T14:00:49.152Z,52.69
2022-09-29T14:01:52.597Z,52.78
2022-09-29T14:03:18.783Z,52.14
2022-09-29T14:04:37.765Z,54.93
2022-09-29T14:05:45.395Z,52.73
2022-09-29T14:06:47.349Z,54.66
2022-09-29T14:07:55.424Z,53.90
2022-09-29T14:09:06.499Z,53.56
2022-09-29T14:10:36.478Z,54.56
2022-09-29T14:11:50.996Z,55.64
2022-09-29T14:13:01.385Z,54.83
2022-09-29T14:14:38.992Z,55.27
2022-09-29T14:15:49.569Z,55.70
2022-09-29T14:16:55.425Z,55.26
2022-09-29T14:18:02.727Z,55.26
2022-09-29T14:19:29.524Z,55.03
2022-09-29T14:20:33.356Z,55.33
2022-09-29T14:21:53.174Z,55.79
2022-09-29T14:22:56.519Z,56.12
2022-09-29T14:23:58.164Z,57.20
2022-09-29T14:25:12.232Z,56.59
2022-09-29T14:26:44.908Z,56.71
2022-09-29T14:28:06.378Z,58.22
2022-09-29T14:29:22.158Z,56.93
2022-09-29T14:30:34.337Z,57.50
2022-09-29T14:31:37.566Z,58.18
2022-09-29T14:32:41.767Z,57.73
2022-09-29T14:33:43.681Z,57.53
2022-09-29T14:34:47.227Z,57.77
2022-09-29T14:36:01.775Z,56.88
2022-09-29T14:37:06.516Z,56.79
2022-09-29T14:38:25.756Z,56.31
2022-09-29T14:39:30.189Z,58.06
2022-09-29T14:40:32.532Z,57.31
2022-09-29T14:41:41.516Z,57.54
2022-09-29T14:42:43.368Z,59.37
2022-09-29T14:44:02.147Z,59.10
2022-09-29T14:45:25.406Z,59.96
2022-09-29T14:46:54.720Z,59.43
2022-09-29T14:48:45.530Z,60.16
2022-09-29T14:50:32.298Z,60.60